createdAt,value
2023-02-11T00:00:06.097Z,28.20
2023-02-11T00:02:32.685Z,37.50
2023-02-11T00:05:00.767Z,26.30
2023-02-11T00:07:28.957Z,22.50
2023-02-11T00:09:54.872Z,33.70
2023-02-11T00:12:21.245Z,37.70
2023-02-11T00:14:47.635Z,35.90
2023-02-11T00:17:13.766Z,29.20
2023-02-11T00:19:39.727Z,36.50
2023-02-11T00:22:05.833Z,24.30
2023-02-11T00:24:31.861Z,30.70
2023-02-11T00:26:57.780Z,32.70
2023-02-11T00:29:23.893Z,33.80
2023-02-11T00:31:49.901Z,36.70
2023-02-11T00:34:15.961Z,26.50
2023-02-11T00:36:42.089Z,36.10
2023-02-11T00:39:08.100Z,38.30
2023-02-11T00:41:34.804Z,37.70
2023-02-11T00:44:01.711Z,25.60
2023-02-11T00:46:27.854Z,33.80
2023-02-11T00:48:57.014Z,25.30
2023-02-11T00:51:27.033Z,32.70
2023-02-11T00:53:53.257Z,36.50
2023-02-11T00:56:19.378Z,28.20
2023-02-11T00:58:45.319Z,33.30
2023-02-11T01:01:11.954Z,22.90
2023-02-11T01:03:38.066Z,37.90
2023-02-11T01:06:05.248Z,39.50
2023-02-11T01:08:31.244Z,25.50
2023-02-11T01:10:58.914Z,44.10
2023-02-11T01:13:25.144Z,36.10
2023-02-11T01:15:53.978Z,30.80
2023-02-11T01:18:19.998Z,31.80
2023-02-11T01:23:12.895Z,30.90
2023-02-11T01:25:38.788Z,29.80
2023-02-11T01:28:04.912Z,27.80
2023-02-11T01:30:30.870Z,33.50
2023-02-11T01:32:56.757Z,34.80
2023-02-11T01:35:22.651Z,40.40
2023-02-11T01:37:49.471Z,41.80
2023-02-11T01:40:16.322Z,40.80
2023-02-11T01:42:43.349Z,42.10
2023-02-11T01:45:40.569Z,31.90
2023-02-11T01:48:06.512Z,36.00
2023-02-11T01:50:32.971Z,26.80
2023-02-11T01:53:18.974Z,34.10
2023-02-11T01:56:04.210Z,42.60
2023-02-11T01:58:30.163Z,42.90
2023-02-11T02:00:56.176Z,35.20
2023-02-11T02:03:22.124Z,31.40
2023-02-11T02:05:58.816Z,41.60
2023-02-11T02:08:52.681Z,33.10
2023-02-11T02:11:18.789Z,31.60
2023-02-11T02:13:45.093Z,37.40
2023-02-11T02:16:13.432Z,34.60
2023-02-11T02:19:02.759Z,40.90
2023-02-11T02:22:06.879Z,29.80
2023-02-11T02:25:00.383Z,36.80
2023-02-11T02:27:37.741Z,34.20
2023-02-11T02:30:29.415Z,39.50
2023-02-11T02:33:27.977Z,37.20
2023-02-11T02:35:59.607Z,41.30
2023-02-11T02:38:53.582Z,35.40
2023-02-11T02:41:23.218Z,28.50
2023-02-11T02:43:50.046Z,28.80
2023-02-11T02:46:20.007Z,37.60
2023-02-11T02:48:46.593Z,28.50
2023-02-11T02:51:15.214Z,40.20
2023-02-11T02:54:00.145Z,37.30
2023-02-11T02:56:55.330Z,39.30
2023-02-11T02:59:50.855Z,28.90
2023-02-11T03:02:26.514Z,37.00
2023-02-11T03:05:04.518Z,39.70
2023-02-11T03:07:36.460Z,31.90
2023-02-11T03:10:25.140Z,36.40
2023-02-11T03:12:51.090Z,32.60
2023-02-11T03:15:17.175Z,32.30
2023-02-11T03:17:45.656Z,29.30
2023-02-11T03:20:13.007Z,34.20
2023-02-11T03:22:57.013Z,29.60
2023-02-11T03:25:28.569Z,38.20
2023-02-11T03:28:27.133Z,38.70
2023-02-11T03:30:56.811Z,38.80
2023-02-11T03:33:37.092Z,36.00
2023-02-11T03:36:05.631Z,35.10
2023-02-11T03:38:34.128Z,37.50
2023-02-11T03:41:00.163Z,39.10
2023-02-11T03:43:39.058Z,38.60
2023-02-11T03:46:04.996Z,32.70
2023-02-11T03:48:33.376Z,36.20
2023-02-11T03:51:00.643Z,35.40
2023-02-11T03:53:26.565Z,37.70
2023-02-11T03:55:53.510Z,30.80
2023-02-11T03:58:19.438Z,27.60
2023-02-11T04:00:45.555Z,32.00
2023-02-11T04:03:12.218Z,42.80
2023-02-11T04:05:38.324Z,38.50
2023-02-11T04:08:04.502Z,36.40
2023-02-11T04:10:30.416Z,31.30
2023-02-11T04:12:56.407Z,31.90
2023-02-11T04:15:22.704Z,33.50
2023-02-11T04:17:48.609Z,39.10
2023-02-11T04:20:14.524Z,40.20
2023-02-11T04:22:40.415Z,40.00
2023-02-11T04:25:07.325Z,23.20
2023-02-11T04:29:59.385Z,39.30
2023-02-11T04:32:25.302Z,38.50
2023-02-11T04:34:51.437Z,37.60
2023-02-11T04:37:17.395Z,32.50
2023-02-11T04:39:43.324Z,33.80
2023-02-11T04:42:10.086Z,41.60
2023-02-11T04:44:35.994Z,33.10
2023-02-11T04:47:01.929Z,41.60
2023-02-11T04:49:27.928Z,44.20
2023-02-11T04:51:53.851Z,21.90
2023-02-11T04:54:19.837Z,43.90
2023-02-11T04:56:45.855Z,42.20
2023-02-11T04:59:12.707Z,39.30
2023-02-11T05:01:39.377Z,41.60
2023-02-11T05:04:05.437Z,43.30
2023-02-11T05:06:31.350Z,36.70
2023-02-11T05:08:57.257Z,36.80
2023-02-11T05:11:23.941Z,29.20
2023-02-11T05:13:50.074Z,42.30
2023-02-11T05:16:16.392Z,41.70
2023-02-11T05:18:43.025Z,43.20
2023-02-11T05:21:11.105Z,48.40
2023-02-11T05:23:37.766Z,43.80
2023-02-11T05:26:03.878Z,44.10
2023-02-11T05:28:29.862Z,33.70
2023-02-11T05:30:56.193Z,30.70
2023-02-11T05:33:22.248Z,44.50
2023-02-11T05:35:48.444Z,44.50
2023-02-11T05:38:14.606Z,34.80
2023-02-11T05:40:40.505Z,34.90
2023-02-11T05:43:06.395Z,44.10
2023-02-11T05:45:32.666Z,40.90
2023-02-11T05:47:58.558Z,44.80
2023-02-11T05:50:24.621Z,42.50
2023-02-11T05:52:52.282Z,47.90
2023-02-11T05:55:18.473Z,48.80
2023-02-11T05:57:44.438Z,46.90
2023-02-11T06:00:11.138Z,45.50
2023-02-11T06:02:39.928Z,34.30
2023-02-11T06:05:06.685Z,42.80
2023-02-11T06:07:32.589Z,47.20
2023-02-11T06:09:58.983Z,45.80
2023-02-11T06:12:24.884Z,46.40
2023-02-11T06:14:50.787Z,38.40
2023-02-11T06:17:16.825Z,48.90
2023-02-11T06:19:42.744Z,36.40
2023-02-11T06:22:08.654Z,48.40
2023-02-11T06:24:58.492Z,32.00
2023-02-11T06:27:20.663Z,44.00
2023-02-11T06:29:47.219Z,34.50
2023-02-11T06:32:33.554Z,43.30
2023-02-11T06:34:59.838Z,49.00
2023-02-11T06:37:25.874Z,39.80
2023-02-11T06:39:51.802Z,27.30
2023-02-11T06:42:17.681Z,49.80
2023-02-11T06:44:44.075Z,54.20
2023-02-11T06:47:10.047Z,39.00
2023-02-11T06:49:36.000Z,48.40
2023-02-11T06:52:02.846Z,46.40
2023-02-11T06:54:28.719Z,52.50
2023-02-11T06:56:54.616Z,48.20
2023-02-11T06:59:20.599Z,36.40
2023-02-11T07:01:46.683Z,37.60
2023-02-11T07:04:14.097Z,43.10
2023-02-11T07:06:40.078Z,51.60
2023-02-11T07:09:06.349Z,37.90
2023-02-11T07:11:32.403Z,38.30
2023-02-11T07:14:07.724Z,48.90
2023-02-11T07:16:33.965Z,48.10
2023-02-11T07:19:00.059Z,29.80
2023-02-11T07:21:26.212Z,40.70
2023-02-11T07:23:52.176Z,47.90
2023-02-11T07:26:20.593Z,49.90
2023-02-11T07:28:46.611Z,43.10
2023-02-11T07:31:16.896Z,55.30
2023-02-11T07:33:45.139Z,47.90
2023-02-11T07:36:11.548Z,47.90
2023-02-11T07:38:37.631Z,48.20
2023-02-11T07:41:05.098Z,41.60
2023-02-11T07:43:31.578Z,37.60
2023-02-11T07:45:57.636Z,52.80
2023-02-11T07:48:23.621Z,50.20
2023-02-11T07:50:49.559Z,50.90
2023-02-11T07:53:15.559Z,52.00
2023-02-11T07:55:44.735Z,46.70
2023-02-11T07:58:10.646Z,39.30
2023-02-11T08:00:36.715Z,51.60
2023-02-11T08:03:03.251Z,56.00
2023-02-11T08:05:29.973Z,27.10
2023-02-11T08:07:55.895Z,52.00
2023-02-11T08:10:21.934Z,57.90
2023-02-11T08:12:47.868Z,54.50
2023-02-11T08:15:13.878Z,50.80
2023-02-11T08:17:39.805Z,42.00
2023-02-11T08:20:06.718Z,49.10
2023-02-11T08:22:33.613Z,31.80
2023-02-11T08:24:59.874Z,54.10
2023-02-11T08:27:26.036Z,56.70
2023-02-11T08:29:55.021Z,54.50
2023-02-11T08:32:21.317Z,49.00
2023-02-11T08:34:51.597Z,54.30
2023-02-11T08:37:18.232Z,48.90
2023-02-11T08:39:46.691Z,46.40
2023-02-11T08:42:14.867Z,57.40
2023-02-11T08:44:40.834Z,55.20
2023-02-11T08:47:06.812Z,41.90
2023-02-11T08:49:33.468Z,53.80
2023-02-11T08:52:03.397Z,51.20
2023-02-11T08:54:30.468Z,52.10
2023-02-11T08:56:56.441Z,29.30
2023-02-11T08:59:22.451Z,40.80
2023-02-11T09:01:48.535Z,55.30
2023-02-11T09:04:14.612Z,58.30
2023-02-11T09:06:40.739Z,53.10
2023-02-11T09:09:10.551Z,51.00
2023-02-11T09:11:36.455Z,54.40
2023-02-11T09:14:03.011Z,52.90
2023-02-11T09:16:32.372Z,51.40
2023-02-11T09:18:59.194Z,52.10
2023-02-11T09:21:25.561Z,51.90
2023-02-11T09:23:51.576Z,47.70
2023-02-11T09:26:25.415Z,49.70
2023-02-11T09:28:51.546Z,46.10
2023-02-11T09:31:19.773Z,55.30
2023-02-11T09:33:49.868Z,52.40
2023-02-11T09:36:17.914Z,51.50
2023-02-11T09:38:44.241Z,50.80
2023-02-11T09:41:23.132Z,53.70
2023-02-11T09:43:56.398Z,51.60
2023-02-11T09:46:22.684Z,52.00
2023-02-11T09:48:49.615Z,53.40
2023-02-11T09:51:29.202Z,57.50
2023-02-11T09:54:00.292Z,44.70
2023-02-11T09:56:26.888Z,53.60
2023-02-11T09:58:53.604Z,55.40
2023-02-11T10:01:46.696Z,51.30
2023-02-11T10:04:18.790Z,48.70
2023-02-11T10:06:46.919Z,54.40
2023-02-11T10:09:33.915Z,59.40
2023-02-11T10:12:09.025Z,50.30
2023-02-11T10:15:01.213Z,52.70
2023-02-11T10:17:51.591Z,51.80
2023-02-11T10:20:32.907Z,51.10
2023-02-11T10:23:03.502Z,56.70
2023-02-11T10:25:43.682Z,55.80
2023-02-11T10:28:14.423Z,60.10
2023-02-11T10:30:58.987Z,51.60
2023-02-11T10:33:31.854Z,51.40
2023-02-11T10:35:58.465Z,48.00
2023-02-11T10:38:24.496Z,45.60
2023-02-11T10:40:50.717Z,52.50
2023-02-11T10:43:17.894Z,46.20
2023-02-11T10:45:48.510Z,50.70
2023-02-11T10:48:36.494Z,48.80
2023-02-11T10:51:07.299Z,49.10
2023-02-11T10:53:34.241Z,49.40
2023-02-11T10:56:00.149Z,50.30
2023-02-11T10:58:28.778Z,51.10
2023-02-11T11:00:55.789Z,25.30
2023-02-11T11:03:48.357Z,34.30
2023-02-11T11:06:14.291Z,43.60
2023-02-11T11:08:48.767Z,49.70
2023-02-11T11:11:16.950Z,56.40
2023-02-11T11:13:52.208Z,53.60
2023-02-11T11:16:28.159Z,55.10
2023-02-11T11:19:06.642Z,53.00
2023-02-11T11:21:36.360Z,49.00
2023-02-11T11:24:02.742Z,39.70
2023-02-11T11:26:45.991Z,56.60
2023-02-11T11:29:22.714Z,48.30
2023-02-11T11:32:00.556Z,53.20
2023-02-11T11:34:28.966Z,58.80
2023-02-11T11:36:56.033Z,47.90
2023-02-11T11:41:54.048Z,51.80
2023-02-11T11:44:31.231Z,61.30
2023-02-11T11:47:12.993Z,54.30
2023-02-11T11:49:42.499Z,53.20
2023-02-11T11:52:20.421Z,48.60
2023-02-11T11:54:51.156Z,52.40
2023-02-11T11:57:23.514Z,56.00
2023-02-11T11:59:49.542Z,53.70
2023-02-11T12:02:44.034Z,50.30
2023-02-11T12:05:36.995Z,56.30
2023-02-11T12:08:16.506Z,57.20
2023-02-11T12:10:54.626Z,50.80
2023-02-11T12:13:52.902Z,56.10
2023-02-11T12:16:53.321Z,61.20
2023-02-11T12:19:31.654Z,33.20
2023-02-11T12:22:04.915Z,51.40
2023-02-11T12:24:56.684Z,59.10
2023-02-11T12:27:46.871Z,48.80
2023-02-11T12:30:37.363Z,59.80
2023-02-11T12:33:20.977Z,57.70
2023-02-11T12:35:58.635Z,45.10
2023-02-11T12:39:03.016Z,58.40
2023-02-11T12:42:11.075Z,50.80
2023-02-11T12:44:44.839Z,57.80
2023-02-11T12:47:30.310Z,59.50
2023-02-11T12:50:32.582Z,61.80
2023-02-11T12:53:18.237Z,51.40
2023-02-11T12:55:45.523Z,49.70
2023-02-11T12:58:29.724Z,62.50
2023-02-11T13:01:09.046Z,61.00
2023-02-11T13:03:47.391Z,53.50
2023-02-11T13:06:19.906Z,65.30
2023-02-11T13:08:51.674Z,62.20
2023-02-11T13:11:37.591Z,61.60
2023-02-11T13:14:04.223Z,58.20
2023-02-11T13:16:44.791Z,58.40
2023-02-11T13:19:13.555Z,61.10
2023-02-11T13:21:42.464Z,56.90
2023-02-11T13:24:08.550Z,58.30
2023-02-11T13:26:58.839Z,48.10
2023-02-11T13:29:32.966Z,64.00
2023-02-11T13:32:06.745Z,57.10
2023-02-11T13:34:41.577Z,63.00
2023-02-11T13:37:33.359Z,63.50
2023-02-11T13:40:07.013Z,62.60
2023-02-11T13:42:34.433Z,47.70
2023-02-11T13:45:00.413Z,60.60
2023-02-11T13:47:31.151Z,61.90
2023-02-11T13:49:57.262Z,46.60
2023-02-11T13:52:31.468Z,58.70
2023-02-11T13:55:06.247Z,49.40
2023-02-11T13:57:34.533Z,60.10
2023-02-11T14:00:05.541Z,60.70
2023-02-11T14:02:53.724Z,59.30
2023-02-11T14:05:48.024Z,56.60
2023-02-11T14:08:39.421Z,58.30
2023-02-11T14:11:36.336Z,56.70
2023-02-11T14:14:13.831Z,63.20
2023-02-11T14:17:00.809Z,54.50
2023-02-11T14:19:33.078Z,62.00
2023-02-11T14:22:12.770Z,63.30
2023-02-11T14:24:44.698Z,68.00
2023-02-11T14:27:15.257Z,63.40
2023-02-11T14:29:50.442Z,58.90
2023-02-11T14:32:45.079Z,59.30
2023-02-11T14:35:27.291Z,54.90
2023-02-11T14:38:24.360Z,57.10
2023-02-11T14:41:09.129Z,57.50
2023-02-11T14:43:46.825Z,55.00
2023-02-11T14:48:44.350Z,37.20
2023-02-11T14:51:12.345Z,59.00
2023-02-11T14:53:41.030Z,54.00
2023-02-11T14:56:17.499Z,51.00
2023-02-11T14:58:48.246Z,52.10
2023-02-11T15:01:35.088Z,30.70
2023-02-11T15:04:02.862Z,57.90
2023-02-11T15:06:32.124Z,60.30
2023-02-11T15:09:20.063Z,59.30
2023-02-11T15:11:47.310Z,46.00
2023-02-11T15:14:33.007Z,56.20
2023-02-11T15:17:01.128Z,55.30
2023-02-11T15:19:38.962Z,53.70
2023-02-11T15:22:06.421Z,49.50
2023-02-11T15:24:34.714Z,58.60
2023-02-11T15:27:01.763Z,51.60
2023-02-11T15:29:33.995Z,49.70
2023-02-11T15:32:21.180Z,52.20
2023-02-11T15:34:48.654Z,29.50
2023-02-11T15:37:25.886Z,50.60
2023-02-11T15:39:52.605Z,48.30
2023-02-11T15:42:28.743Z,38.20
2023-02-11T15:45:14.103Z,44.90
2023-02-11T15:47:41.830Z,22.70
2023-02-11T15:50:18.977Z,47.10
2023-02-11T15:52:45.231Z,48.50
2023-02-11T15:55:13.185Z,46.20
2023-02-11T15:57:42.740Z,43.40
2023-02-11T16:00:16.193Z,40.10
2023-02-11T16:02:44.707Z,37.50
2023-02-11T16:05:33.822Z,40.00
2023-02-11T16:08:00.120Z,41.40
2023-02-11T16:10:33.702Z,35.80
2023-02-11T16:12:59.659Z,40.00
2023-02-11T16:15:34.547Z,36.70
2023-02-11T16:18:01.608Z,39.50
2023-02-11T16:22:53.403Z,31.40
2023-02-11T16:25:20.203Z,34.60
2023-02-11T16:27:53.123Z,33.20
2023-02-11T16:30:29.152Z,40.30
2023-02-11T16:32:55.148Z,40.40
2023-02-11T16:35:21.116Z,39.70
2023-02-11T16:37:47.085Z,38.00
2023-02-11T16:40:13.738Z,37.90
2023-02-11T16:42:39.953Z,22.10
2023-02-11T16:45:06.790Z,38.00
2023-02-11T16:47:34.850Z,39.60
2023-02-11T16:50:00.813Z,37.80
2023-02-11T16:52:26.934Z,40.70
2023-02-11T16:54:52.918Z,38.40
2023-02-11T16:57:23.604Z,36.10
2023-02-11T16:59:49.585Z,35.30
2023-02-11T17:02:29.879Z,37.40
2023-02-11T17:04:58.540Z,33.60
2023-02-11T17:07:24.568Z,36.50
2023-02-11T17:09:51.644Z,36.50
2023-02-11T17:14:43.965Z,23.70
2023-02-11T17:17:10.508Z,27.60
2023-02-11T17:19:36.623Z,34.10
2023-02-11T17:22:02.761Z,36.50
2023-02-11T17:24:28.752Z,26.80
2023-02-11T17:26:55.017Z,33.50
2023-02-11T17:29:23.250Z,34.10
2023-02-11T17:31:51.247Z,30.30
2023-02-11T17:34:17.964Z,27.80
2023-02-11T17:36:44.225Z,25.80
2023-02-11T17:39:10.203Z,18.20
2023-02-11T17:41:36.907Z,28.70
2023-02-11T17:44:02.978Z,30.70
2023-02-11T17:46:29.029Z,26.30
2023-02-11T17:48:55.273Z,26.00
2023-02-11T17:51:23.214Z,27.90
2023-02-11T17:53:49.273Z,27.60
2023-02-11T17:56:15.196Z,26.50
2023-02-11T17:58:41.115Z,29.10
2023-02-11T18:01:07.067Z,27.70
2023-02-11T18:03:33.251Z,28.70
2023-02-11T18:06:00.244Z,25.80
2023-02-11T18:08:26.139Z,26.20
2023-02-11T18:10:52.442Z,24.30
2023-02-11T18:13:18.374Z,24.10
2023-02-11T18:15:44.388Z,26.30
2023-02-11T18:18:10.316Z,24.00
2023-02-11T18:20:36.251Z,23.30
2023-02-11T18:23:02.207Z,16.90
2023-02-11T18:25:29.320Z,25.10
2023-02-11T18:30:21.979Z,23.00
2023-02-11T18:32:52.879Z,22.90
2023-02-11T18:35:19.469Z,20.60
2023-02-11T18:37:45.413Z,22.50
2023-02-11T18:40:12.300Z,22.00
2023-02-11T18:42:38.443Z,20.80
2023-02-11T18:45:09.009Z,20.50
2023-02-11T18:47:37.193Z,21.00
2023-02-11T18:50:04.983Z,19.90
2023-02-11T18:52:31.242Z,20.10
2023-02-11T18:54:57.126Z,19.10
2023-02-11T18:57:23.298Z,18.60
2023-02-11T18:59:50.135Z,19.10
2023-02-11T19:02:17.131Z,18.20
2023-02-11T19:04:43.241Z,20.70
2023-02-11T19:07:09.547Z,20.70
2023-02-11T19:09:35.505Z,20.40
2023-02-11T19:12:01.996Z,20.50
2023-02-11T19:14:30.802Z,23.80
2023-02-11T19:16:58.523Z,22.00
2023-02-11T19:19:27.378Z,20.50
2023-02-11T19:21:59.301Z,19.80
2023-02-11T19:24:28.627Z,19.60
2023-02-11T19:26:56.670Z,20.70
2023-02-11T19:29:39.074Z,20.40
2023-02-11T19:32:05.534Z,20.20
2023-02-11T19:34:31.784Z,21.50
2023-02-11T19:37:00.242Z,23.40
2023-02-11T19:39:26.887Z,21.80
2023-02-11T19:41:55.757Z,22.40
2023-02-11T19:44:21.802Z,22.40
2023-02-11T19:46:49.520Z,24.10
2023-02-11T19:49:16.902Z,24.40
2023-02-11T19:51:43.072Z,24.90
2023-02-11T19:54:09.451Z,23.70
2023-02-11T19:56:37.224Z,23.50
2023-02-11T19:59:03.804Z,25.00
2023-02-11T20:01:32.223Z,23.70
2023-02-11T20:03:58.665Z,23.90
2023-02-11T20:06:27.431Z,28.50
2023-02-11T20:08:57.259Z,26.80
2023-02-11T20:11:24.834Z,23.30
2023-02-11T20:13:50.966Z,22.50
2023-02-11T20:16:19.042Z,24.50
2023-02-11T20:18:45.780Z,24.80
2023-02-11T20:21:14.451Z,22.60
2023-02-11T20:23:40.553Z,21.50
2023-02-11T20:26:18.562Z,22.50
2023-02-11T20:28:46.351Z,19.10
2023-02-11T20:31:12.444Z,24.50
2023-02-11T20:33:38.920Z,23.50
2023-02-11T20:36:13.429Z,21.30
2023-02-11T20:38:39.499Z,23.10
2023-02-11T20:41:13.544Z,19.20
2023-02-11T20:43:45.439Z,21.10
2023-02-11T20:46:12.084Z,24.50
2023-02-11T20:48:53.940Z,23.90
2023-02-11T20:51:22.378Z,24.00
2023-02-11T20:53:50.448Z,24.20
2023-02-11T20:56:18.397Z,22.40
2023-02-11T20:58:44.456Z,21.30
2023-02-11T21:01:18.650Z,25.60
2023-02-11T21:03:48.697Z,25.90
2023-02-11T21:06:14.973Z,25.40
2023-02-11T21:08:40.997Z,26.60
2023-02-11T21:11:10.339Z,23.80
2023-02-11T21:13:37.286Z,28.10
2023-02-11T21:16:03.861Z,29.40
2023-02-11T21:18:29.864Z,27.50
2023-02-11T21:20:56.141Z,29.60
2023-02-11T21:23:22.325Z,20.50
2023-02-11T21:25:48.404Z,28.10
2023-02-11T21:28:14.511Z,25.20
2023-02-11T21:30:41.384Z,30.50
2023-02-11T21:33:07.499Z,26.20
2023-02-11T21:35:34.245Z,27.70
2023-02-11T21:38:00.367Z,27.50
2023-02-11T21:40:29.150Z,25.00
2023-02-11T21:42:55.548Z,29.80
2023-02-11T21:45:22.404Z,34.30
2023-02-11T21:47:48.358Z,30.40
2023-02-11T21:50:14.343Z,28.70
2023-02-11T21:52:40.302Z,30.60
2023-02-11T21:55:06.417Z,30.30
2023-02-11T21:57:32.376Z,23.10
2023-02-11T21:59:58.502Z,33.20
2023-02-11T22:02:24.403Z,32.10
2023-02-11T22:04:50.390Z,28.90
2023-02-11T22:07:16.514Z,30.00
2023-02-11T22:09:42.474Z,28.40
2023-02-11T22:12:08.385Z,28.40
2023-02-11T22:14:35.261Z,27.70
2023-02-11T22:17:01.225Z,28.70
2023-02-11T22:19:27.194Z,31.10
2023-02-11T22:21:53.069Z,25.60
2023-02-11T22:24:18.949Z,20.80
2023-02-11T22:26:44.819Z,24.40
2023-02-11T22:29:11.679Z,25.30
2023-02-11T22:31:37.958Z,29.10
2023-02-11T22:34:04.217Z,18.50
2023-02-11T22:36:32.527Z,25.80
2023-02-11T22:39:06.275Z,21.60
2023-02-11T22:41:32.887Z,9.80
2023-02-11T22:43:58.920Z,19.60
2023-02-11T22:46:25.094Z,26.90
2023-02-11T22:48:51.529Z,25.80
2023-02-11T22:51:19.859Z,24.30
2023-02-11T22:53:53.725Z,19.10
2023-02-11T22:56:20.043Z,20.80
2023-02-11T22:58:46.209Z,26.20
2023-02-11T23:01:12.302Z,25.30
2023-02-11T23:03:38.430Z,28.20
2023-02-11T23:06:04.761Z,26.00
2023-02-11T23:08:31.328Z,24.50
2023-02-11T23:11:08.431Z,27.20
2023-02-11T23:13:35.674Z,25.80
2023-02-11T23:16:06.937Z,24.10
2023-02-11T23:18:33.943Z,25.10
2023-02-11T23:21:10.137Z,24.50
2023-02-11T23:23:38.483Z,23.60
2023-02-11T23:26:04.642Z,22.90
2023-02-11T23:28:30.903Z,23.80
2023-02-11T23:30:56.998Z,20.10
2023-02-11T23:33:22.953Z,28.00
2023-02-11T23:35:49.105Z,21.70
2023-02-11T23:38:15.172Z,22.50
2023-02-11T23:40:41.435Z,24.40
2023-02-11T23:43:07.881Z,23.70
2023-02-11T23:45:33.936Z,22.80
2023-02-11T23:47:59.956Z,20.70
2023-02-11T23:50:25.867Z,27.70
2023-02-11T23:52:51.811Z,26.30
2023-02-11T23:55:17.798Z,22.70
2023-02-11T23:57:44.030Z,24.40
